KAWG

Details ICAO KAWG
Name WASHINGTON MUNI
Region United States
Timezone America/Chicago (UTC-6.0)
Plans Departing 0
Arriving 2
Stats Elevation 754 ft / 230 m (AMSL)
Location 41.275124° -91.675065°
Runways 2
Magnetic Variation 0.674° W
Sunrise 2017-12-14 13:26:16 UTC / 2017-12-14 07:26:16 Local
Sunset 2017-12-14 22:39:32 UTC / 2017-12-14 16:39:32 Local
Advertisement - Login to hide

Runways

ID Width Length Bearing (true) Bearing (mag) Surface Threshold Offset Overrun Length
13 50 ft / 15 m 3,398 ft / 1,036 m 134.84° 135.51° Concrete 0 ft / 0 m 0 ft / 0 m
18 75 ft / 23 m 4,007 ft / 1,221 m 183.06° 183.73° Concrete 0 ft / 0 m 0 ft / 0 m
31 50 ft / 15 m 3,398 ft / 1,036 m 314.85° 315.52° Concrete 335 ft / 102 m 0 ft / 0 m
36 75 ft / 23 m 4,007 ft / 1,221 m 3.06° 3.73° Concrete 0 ft / 0 m 0 ft / 0 m

Map

Weather


0- 5 10 15 20 25 30 35+ Temperature / ° C

Clouds and Precipitation
Forecast for 2017-12-15 00:00 UTC. Updated an hour ago

Ground ~20,000 ft ~40,000 ft Winds

METAR

KAWG 142235Z AUTO 31005KT 10SM OVC025 M03/M08 A3010 RMK AO2

TAF

Not found

Frequencies

Recorded 127.82 MHz AWOS 3
Unicom 122.70 MHz CTAF/UNICOM
Warning: Do not use this data for real-world aviation or navigation. No guarantee of current accuracy is given.